Time;durP1;ratioP1;P1;durP2;ratioP2;P2;SDS_P1;SDS_P2;PMS_P1;PMS_P2;Temp;Humidity;BMP_temperature;BMP_pressure;BME280_temperature;BME280_humidity;BME280_pressure;Samples;Min_cycle;Max_cycle;Signal;HPM_P1;HPM_P2
2023/06/17 00:00:08;;;;;;;4.45;3.03;;;;;;;;;;5055659;28;20222;-49
2023/06/17 00:02:34;;;;;;;3.70;3.25;;;;;;;;;;5062630;28;20182;-49
2023/06/17 00:05:00;;;;;;;4.07;3.33;;;;;;;;;;5061104;28;20650;-49
2023/06/17 00:07:26;;;;;;;3.40;3.10;;;;;;;;;;5059509;28;20456;-49
2023/06/17 00:09:52;;;;;;;4.03;3.47;;;;;;;;;;5058218;28;20175;-49
2023/06/17 00:12:18;;;;;;;3.55;3.25;;;;;;;;;;5060961;28;20214;-49
2023/06/17 00:14:46;;;;;;;3.85;3.45;;;;;;;;;;5052810;28;20183;-49
2023/06/17 00:17:12;;;;;;;3.75;3.45;;;;;;;;;;5060749;28;20186;-49
2023/06/17 00:19:40;;;;;;;3.67;3.25;;;;;;;;;;5059800;28;20191;-49
2023/06/17 00:22:08;;;;;;;5.13;3.20;;;;;;;;;;5063728;28;20205;-49
2023/06/17 00:24:34;;;;;;;4.38;3.00;;;;;;;;;;5060303;28;20199;-49
2023/06/17 00:27:00;;;;;;;3.65;3.05;;;;;;;;;;5062380;28;20210;-49
2023/06/17 00:29:26;;;;;;;3.42;3.10;;;;;;;;;;5054373;28;20179;-49
2023/06/17 00:31:52;;;;;;;3.80;3.40;;;;;;;;;;5054226;28;20210;-49
2023/06/17 00:34:18;;;;;;;3.90;3.47;;;;;;;;;;5064202;28;20484;-49
2023/06/17 00:36:44;;;;;;;3.50;3.05;;;;;;;;;;5055051;28;20241;-49
2023/06/17 00:39:09;;;;;;;5.28;3.35;;;;;;;;;;5060104;28;20188;-49
2023/06/17 00:41:35;;;;;;;3.83;3.42;;;;;;;;;;5052820;28;20210;-49
2023/06/17 00:44:02;;;;;;;3.50;3.03;;;;;;;;;;5057126;28;20179;-49
2023/06/17 00:46:36;;;;;;;4.13;3.00;;;;;;;;;;5058704;28;20210;-49
2023/06/17 00:49:03;;;;;;;3.78;3.38;;;;;;;;;;5050770;28;20574;-49
2023/06/17 00:51:31;;;;;;;3.42;3.13;;;;;;;;;;5056704;28;20892;-49
2023/06/17 00:53:57;;;;;;;4.30;3.22;;;;;;;;;;5057785;28;20551;-49
2023/06/17 00:56:25;;;;;;;4.07;3.60;;;;;;;;;;5064267;28;20196;-49
2023/06/17 00:58:51;;;;;;;11.27;3.67;;;;;;;;;;5061504;28;20269;-49
2023/06/17 01:01:17;;;;;;;4.25;3.08;;;;;;;;;;5064801;28;20397;-49
2023/06/17 01:03:43;;;;;;;4.93;3.40;;;;;;;;;;5053977;28;20172;-49
2023/06/17 01:06:12;;;;;;;4.25;3.15;;;;;;;;;;5070423;28;20228;-49
2023/06/17 01:08:44;;;;;;;5.47;3.08;;;;;;;;;;5061694;28;20189;-49
2023/06/17 01:11:14;;;;;;;4.13;3.30;;;;;;;;;;5064468;28;20601;-49
2023/06/17 01:13:42;;;;;;;3.15;2.85;;;;;;;;;;5061411;28;20190;-49
2023/06/17 01:16:08;;;;;;;3.83;3.42;;;;;;;;;;5061972;28;20191;-48
2023/06/17 01:18:36;;;;;;;3.67;3.38;;;;;;;;;;5056601;28;20245;-48
2023/06/17 01:21:03;;;;;;;3.25;2.95;;;;;;;;;;5069675;28;20182;-48
2023/06/17 01:23:34;;;;;;;3.72;3.00;;;;;;;;;;5072557;28;20210;-49
2023/06/17 01:26:01;;;;;;;5.55;3.05;;;;;;;;;;5063235;28;20512;-49
2023/06/17 01:28:29;;;;;;;3.90;3.55;;;;;;;;;;5063949;28;20187;-49
2023/06/17 01:30:56;;;;;;;4.38;3.20;;;;;;;;;;5069882;28;20182;-49
2023/06/17 01:33:23;;;;;;;3.85;3.28;;;;;;;;;;5056698;28;20543;-49
2023/06/17 01:36:13;;;;;;;3.53;3.08;;;;;;;;;;5062048;28;20186;-49
2023/06/17 01:38:42;;;;;;;3.67;2.83;;;;;;;;;;5058979;28;20204;-49
2023/06/17 01:41:24;;;;;;;3.33;2.95;;;;;;;;;;5062691;28;20203;-49
2023/06/17 01:43:50;;;;;;;3.72;3.22;;;;;;;;;;5071166;28;20186;-49
2023/06/17 01:46:17;;;;;;;3.13;2.80;;;;;;;;;;5063767;28;20199;-49
2023/06/17 01:48:43;;;;;;;3.22;2.92;;;;;;;;;;5055167;28;20190;-49
2023/06/17 01:51:09;;;;;;;3.13;2.90;;;;;;;;;;5052295;28;20197;-49
2023/06/17 01:53:35;;;;;;;3.90;3.08;;;;;;;;;;5061017;28;20182;-49
2023/06/17 01:56:01;;;;;;;4.50;3.33;;;;;;;;;;5059244;28;20190;-49
2023/06/17 01:58:27;;;;;;;3.17;2.88;;;;;;;;;;5063592;28;20210;-49
2023/06/17 02:00:53;;;;;;;4.35;2.97;;;;;;;;;;5054592;28;20510;-49
2023/06/17 02:03:18;;;;;;;3.10;2.83;;;;;;;;;;5064378;28;20179;-49
2023/06/17 02:05:45;;;;;;;3.15;2.50;;;;;;;;;;5057660;28;20333;-49
2023/06/17 02:08:11;;;;;;;3.75;2.80;;;;;;;;;;5054804;28;20198;-49
2023/06/17 02:10:37;;;;;;;4.53;3.20;;;;;;;;;;5060260;28;20189;-49
2023/06/17 02:13:03;;;;;;;2.67;2.47;;;;;;;;;;5069401;28;20186;-48
2023/06/17 02:15:30;;;;;;;3.50;2.88;;;;;;;;;;5060476;28;20191;-48
2023/06/17 02:17:56;;;;;;;3.70;3.10;;;;;;;;;;5070468;28;20179;-49
2023/06/17 02:20:22;;;;;;;3.05;2.75;;;;;;;;;;5069596;28;20433;-49
2023/06/17 02:22:48;;;;;;;4.30;3.42;;;;;;;;;;5057544;28;20210;-49
2023/06/17 02:25:14;;;;;;;3.35;3.03;;;;;;;;;;5055160;28;20590;-49
2023/06/17 02:27:40;;;;;;;2.92;2.70;;;;;;;;;;5063662;28;20211;-49
2023/06/17 02:30:07;;;;;;;3.10;2.80;;;;;;;;;;5062292;28;20521;-49
2023/06/17 02:32:33;;;;;;;3.15;2.85;;;;;;;;;;5058885;28;20278;-49
2023/06/17 02:34:59;;;;;;;3.92;2.92;;;;;;;;;;5065475;28;20585;-49
2023/06/17 02:37:25;;;;;;;4.70;3.17;;;;;;;;;;5053756;28;20262;-49
2023/06/17 02:39:51;;;;;;;3.25;2.95;;;;;;;;;;5062191;28;20225;-49
2023/06/17 02:42:17;;;;;;;3.78;3.13;;;;;;;;;;5057244;28;20182;-49
2023/06/17 02:44:43;;;;;;;3.10;2.80;;;;;;;;;;5052013;28;20188;-49
2023/06/17 02:47:09;;;;;;;4.00;3.03;;;;;;;;;;5049309;28;20426;-49
2023/06/17 02:49:35;;;;;;;3.75;3.03;;;;;;;;;;5070498;28;20182;-49
2023/06/17 02:52:01;;;;;;;3.40;3.10;;;;;;;;;;5067758;28;20178;-49
2023/06/17 02:54:27;;;;;;;3.65;2.92;;;;;;;;;;5062120;28;20171;-49
2023/06/17 02:56:53;;;;;;;3.35;3.00;;;;;;;;;;5063768;28;20427;-49
2023/06/17 02:59:19;;;;;;;3.28;2.97;;;;;;;;;;5055468;28;20273;-49
2023/06/17 03:01:45;;;;;;;3.53;2.78;;;;;;;;;;5052878;28;20182;-49
2023/06/17 03:04:11;;;;;;;3.72;2.90;;;;;;;;;;5067493;28;20183;-49
2023/06/17 03:06:40;;;;;;;3.38;3.00;;;;;;;;;;5067222;28;20543;-49
2023/06/17 03:09:07;;;;;;;3.28;2.97;;;;;;;;;;5061545;28;20203;-49
2023/06/17 03:11:32;;;;;;;4.05;2.90;;;;;;;;;;5061547;28;20179;-49
2023/06/17 03:13:58;;;;;;;3.38;3.08;;;;;;;;;;5067462;28;20599;-49
2023/06/17 03:16:24;;;;;;;3.95;3.08;;;;;;;;;;5067252;28;20175;-49
2023/06/17 03:18:51;;;;;;;3.47;2.75;;;;;;;;;;5065101;28;20242;-49
2023/06/17 03:21:17;;;;;;;3.00;2.70;;;;;;;;;;5065714;28;20191;-49
2023/06/17 03:23:42;;;;;;;3.53;3.25;;;;;;;;;;5068800;28;20229;-49
2023/06/17 03:26:12;;;;;;;3.28;2.97;;;;;;;;;;5052502;28;20211;-49
2023/06/17 03:28:37;;;;;;;4.03;3.00;;;;;;;;;;5066668;28;20171;-49
2023/06/17 03:31:03;;;;;;;3.38;3.08;;;;;;;;;;5049862;28;20210;-49
2023/06/17 03:33:29;;;;;;;3.97;2.88;;;;;;;;;;5049603;28;20178;-49
2023/06/17 03:35:57;;;;;;;2.80;2.60;;;;;;;;;;5065314;28;20202;-49
2023/06/17 03:38:22;;;;;;;2.63;2.42;;;;;;;;;;5066051;28;20186;-49
2023/06/17 03:40:48;;;;;;;3.95;3.03;;;;;;;;;;5060520;28;20176;-49
2023/06/17 03:43:15;;;;;;;3.85;2.75;;;;;;;;;;5057211;28;20191;-49
2023/06/17 03:45:41;;;;;;;4.78;3.30;;;;;;;;;;5057593;28;20216;-49
2023/06/17 03:48:07;;;;;;;4.95;3.28;;;;;;;;;;5054688;28;20504;-49
2023/06/17 03:50:33;;;;;;;3.50;2.80;;;;;;;;;;5064345;28;20178;-49
2023/06/17 03:52:59;;;;;;;3.42;3.13;;;;;;;;;;5060408;28;20257;-49
2023/06/17 03:55:25;;;;;;;3.15;2.85;;;;;;;;;;5070943;28;20585;-49
2023/06/17 03:57:52;;;;;;;6.00;2.85;;;;;;;;;;5065411;28;20214;-49
2023/06/17 04:00:19;;;;;;;2.95;2.53;;;;;;;;;;5054739;28;20179;-49
2023/06/17 04:02:45;;;;;;;3.05;2.80;;;;;;;;;;5053169;28;21085;-49
2023/06/17 04:05:15;;;;;;;4.22;2.83;;;;;;;;;;5054555;28;20187;-48
2023/06/17 04:07:42;;;;;;;3.50;3.20;;;;;;;;;;5062615;28;20198;-49
2023/06/17 04:10:08;;;;;;;4.13;2.78;;;;;;;;;;5065128;28;20168;-49
2023/06/17 04:12:37;;;;;;;4.75;2.85;;;;;;;;;;5057314;28;20179;-49
2023/06/17 04:15:04;;;;;;;4.03;3.22;;;;;;;;;;5060486;28;20216;-49
2023/06/17 04:17:30;;;;;;;3.47;2.80;;;;;;;;;;5058016;28;20183;-49
2023/06/17 04:19:58;;;;;;;3.22;2.92;;;;;;;;;;5057689;28;20444;-49
2023/06/17 04:22:24;;;;;;;3.45;2.75;;;;;;;;;;5055982;28;20327;-49
2023/06/17 04:24:55;;;;;;;3.03;2.78;;;;;;;;;;5061449;28;20202;-49
2023/06/17 04:27:21;;;;;;;3.67;3.28;;;;;;;;;;5070941;28;20612;-49
2023/06/17 04:29:47;;;;;;;3.65;3.35;;;;;;;;;;5060241;28;20183;-49
2023/06/17 04:32:15;;;;;;;3.33;3.00;;;;;;;;;;5059740;28;20201;-49
2023/06/17 04:34:43;;;;;;;4.60;2.67;;;;;;;;;;5061171;28;20213;-49
2023/06/17 04:37:09;;;;;;;3.70;3.00;;;;;;;;;;5063518;28;20656;-49
2023/06/17 04:39:35;;;;;;;4.82;3.35;;;;;;;;;;5066959;28;20186;-49
2023/06/17 04:42:01;;;;;;;4.18;3.28;;;;;;;;;;5059691;28;20183;-50
2023/06/17 04:44:29;;;;;;;3.50;2.80;;;;;;;;;;5060482;28;20578;-50
2023/06/17 04:46:54;;;;;;;3.13;2.83;;;;;;;;;;5063219;28;20569;-49
2023/06/17 04:49:20;;;;;;;4.40;3.33;;;;;;;;;;5057376;28;20183;-49
2023/06/17 04:51:48;;;;;;;3.58;3.28;;;;;;;;;;5060288;28;20181;-49
2023/06/17 04:54:14;;;;;;;5.85;3.65;;;;;;;;;;5067027;28;20171;-50
2023/06/17 04:56:40;;;;;;;4.07;3.17;;;;;;;;;;5063622;28;20205;-50
2023/06/17 04:59:06;;;;;;;3.58;3.25;;;;;;;;;;5063281;28;20207;-50
2023/06/17 05:01:32;;;;;;;3.33;3.03;;;;;;;;;;5057753;28;20293;-50
2023/06/17 05:03:58;;;;;;;6.03;3.28;;;;;;;;;;5064108;28;20172;-50
2023/06/17 05:06:24;;;;;;;5.00;3.53;;;;;;;;;;5060105;28;20234;-49
2023/06/17 05:08:50;;;;;;;3.92;3.55;;;;;;;;;;5065787;28;20664;-49
2023/06/17 05:11:16;;;;;;;4.70;3.17;;;;;;;;;;5061433;28;20198;-49
2023/06/17 05:13:42;;;;;;;4.90;3.28;;;;;;;;;;5062856;28;20179;-49
2023/06/17 05:16:08;;;;;;;4.13;3.10;;;;;;;;;;5064221;28;20550;-49
2023/06/17 05:18:41;;;;;;;3.65;3.30;;;;;;;;;;5060587;28;20221;-49
2023/06/17 05:21:07;;;;;;;5.78;3.20;;;;;;;;;;5052640;28;20509;-49
2023/06/17 05:23:33;;;;;;;5.22;3.42;;;;;;;;;;5053100;28;20223;-49
2023/06/17 05:25:59;;;;;;;3.75;3.30;;;;;;;;;;5058172;28;20293;-49
2023/06/17 05:28:25;;;;;;;4.43;3.58;;;;;;;;;;5063114;28;20183;-49
2023/06/17 05:30:51;;;;;;;4.72;3.38;;;;;;;;;;5054644;28;20179;-49
2023/06/17 05:33:17;;;;;;;5.13;3.72;;;;;;;;;;5060514;28;20207;-49
2023/06/17 05:35:43;;;;;;;4.97;3.25;;;;;;;;;;5058452;28;20266;-49
2023/06/17 05:38:08;;;;;;;5.25;3.33;;;;;;;;;;5055437;28;20410;-50
2023/06/17 05:40:34;;;;;;;5.32;3.53;;;;;;;;;;5055832;28;20191;-50
2023/06/17 05:43:00;;;;;;;3.42;3.13;;;;;;;;;;5052180;28;20195;-49
2023/06/17 05:45:26;;;;;;;4.28;3.83;;;;;;;;;;5057615;28;20218;-49
2023/06/17 05:47:52;;;;;;;3.58;3.28;;;;;;;;;;5053320;28;20190;-49
2023/06/17 05:50:18;;;;;;;4.35;3.40;;;;;;;;;;5047709;28;20187;-49
2023/06/17 05:52:45;;;;;;;3.92;3.53;;;;;;;;;;5051532;28;20183;-49
2023/06/17 05:55:11;;;;;;;7.47;3.00;;;;;;;;;;5052714;28;20822;-49
2023/06/17 05:57:37;;;;;;;4.50;3.65;;;;;;;;;;5061299;28;20179;-49
2023/06/17 06:00:04;;;;;;;8.32;3.45;;;;;;;;;;5055473;28;20209;-49
2023/06/17 06:02:29;;;;;;;5.65;3.70;;;;;;;;;;5063984;28;20432;-49
2023/06/17 06:04:55;;;;;;;10.82;4.20;;;;;;;;;;5048590;28;20217;-49
2023/06/17 06:07:21;;;;;;;4.78;3.80;;;;;;;;;;5049506;28;20241;-49
2023/06/17 06:09:47;;;;;;;4.85;4.03;;;;;;;;;;5063470;28;20201;-49
2023/06/17 06:12:13;;;;;;;5.82;4.10;;;;;;;;;;5056003;28;20190;-47
2023/06/17 06:14:39;;;;;;;5.07;3.95;;;;;;;;;;5056519;28;20198;-45
2023/06/17 06:17:05;;;;;;;7.63;4.10;;;;;;;;;;5054973;28;20253;-44
2023/06/17 06:19:31;;;;;;;5.05;4.25;;;;;;;;;;5065601;28;20237;-48
2023/06/17 06:21:57;;;;;;;4.47;4.05;;;;;;;;;;5063574;28;20187;-48
2023/06/17 06:24:22;;;;;;;5.40;3.50;;;;;;;;;;5067791;28;20507;-48
2023/06/17 06:26:48;;;;;;;4.22;3.72;;;;;;;;;;5064231;28;20476;-48
2023/06/17 06:29:15;;;;;;;4.40;4.00;;;;;;;;;;5061584;28;20210;-48
2023/06/17 06:31:43;;;;;;;7.93;4.40;;;;;;;;;;5065447;28;20558;-48
2023/06/17 06:34:09;;;;;;;6.65;3.85;;;;;;;;;;5060461;28;20182;-48
2023/06/17 06:36:35;;;;;;;5.63;3.83;;;;;;;;;;5065014;28;20505;-48
2023/06/17 06:39:01;;;;;;;5.65;4.25;;;;;;;;;;5054432;28;20194;-48
2023/06/17 06:41:27;;;;;;;4.20;3.80;;;;;;;;;;5059873;28;20216;-49
2023/06/17 06:43:53;;;;;;;5.10;3.65;;;;;;;;;;5063378;28;20480;-48
2023/06/17 06:46:19;;;;;;;5.68;4.00;;;;;;;;;;5060312;28;20195;-48
2023/06/17 06:48:45;;;;;;;4.78;3.67;;;;;;;;;;5064601;28;20200;-48
2023/06/17 06:51:11;;;;;;;5.32;3.63;;;;;;;;;;5055933;28;20550;-49
2023/06/17 06:53:37;;;;;;;8.20;4.60;;;;;;;;;;5056106;28;20270;-48
2023/06/17 06:56:03;;;;;;;5.50;3.55;;;;;;;;;;5061128;28;20190;-48
2023/06/17 06:58:29;;;;;;;5.30;3.55;;;;;;;;;;5070564;28;20187;-48
2023/06/17 07:00:55;;;;;;;5.90;3.40;;;;;;;;;;5052172;28;20203;-48
2023/06/17 07:03:21;;;;;;;3.85;3.53;;;;;;;;;;5056217;28;20272;-49
2023/06/17 07:05:47;;;;;;;3.95;3.63;;;;;;;;;;5056902;28;20490;-49
2023/06/17 07:08:13;;;;;;;4.78;3.38;;;;;;;;;;5064997;28;20540;-48
2023/06/17 07:10:39;;;;;;;4.43;4.03;;;;;;;;;;5053882;28;20668;-48
2023/06/17 07:13:06;;;;;;;5.72;4.70;;;;;;;;;;5055538;28;20193;-48
2023/06/17 07:15:32;;;;;;;5.50;4.53;;;;;;;;;;5055049;28;20437;-48
2023/06/17 07:17:58;;;;;;;5.00;4.00;;;;;;;;;;5058107;28;20281;-48
2023/06/17 07:20:24;;;;;;;4.90;4.32;;;;;;;;;;5060628;28;20195;-48
2023/06/17 07:22:49;;;;;;;5.45;3.78;;;;;;;;;;5055638;28;20221;-49
2023/06/17 07:25:15;;;;;;;4.43;3.97;;;;;;;;;;5061017;28;20175;-49
2023/06/17 07:27:41;;;;;;;4.57;4.13;;;;;;;;;;5063384;28;20174;-49
2023/06/17 07:30:07;;;;;;;9.05;5.13;;;;;;;;;;5054722;28;20261;-49
2023/06/17 07:32:33;;;;;;;4.80;4.30;;;;;;;;;;5061847;28;20450;-49
2023/06/17 07:34:59;;;;;;;7.25;4.03;;;;;;;;;;5051625;28;20175;-49
2023/06/17 07:37:25;;;;;;;10.00;4.50;;;;;;;;;;5061718;28;20205;-49
2023/06/17 07:39:51;;;;;;;6.22;5.07;;;;;;;;;;5063722;28;20203;-48
2023/06/17 07:42:17;;;;;;;5.13;4.43;;;;;;;;;;5067114;28;20183;-49
2023/06/17 07:44:44;;;;;;;5.60;4.22;;;;;;;;;;5057957;28;20185;-49
2023/06/17 07:47:10;;;;;;;5.93;4.93;;;;;;;;;;5066424;28;20216;-48
2023/06/17 07:49:36;;;;;;;6.20;4.57;;;;;;;;;;5060594;28;20258;-49
2023/06/17 07:52:03;;;;;;;7.18;4.00;;;;;;;;;;5056884;28;20489;-49
2023/06/17 07:54:28;;;;;;;4.68;4.28;;;;;;;;;;5059101;28;20254;-49
2023/06/17 07:56:54;;;;;;;5.53;4.28;;;;;;;;;;5063221;28;20259;-49
2023/06/17 07:59:20;;;;;;;6.18;5.50;;;;;;;;;;5065157;28;20274;-48
2023/06/17 08:01:46;;;;;;;4.68;4.28;;;;;;;;;;5054634;28;20214;-48
2023/06/17 08:04:12;;;;;;;4.90;4.10;;;;;;;;;;5072006;28;20186;-49
2023/06/17 08:06:40;;;;;;;5.85;4.68;;;;;;;;;;5055754;28;20245;-49
2023/06/17 08:09:06;;;;;;;9.45;5.10;;;;;;;;;;5065805;28;20181;-48
2023/06/17 08:11:32;;;;;;;10.88;5.47;;;;;;;;;;5057908;28;20199;-49
2023/06/17 08:13:58;;;;;;;6.90;4.90;;;;;;;;;;5060194;28;20186;-48
2023/06/17 08:16:24;;;;;;;8.07;5.43;;;;;;;;;;5065457;28;20182;-49
2023/06/17 08:18:50;;;;;;;6.70;4.65;;;;;;;;;;5075966;28;20198;-48
2023/06/17 08:21:16;;;;;;;9.00;4.75;;;;;;;;;;5067670;28;20182;-48
2023/06/17 08:23:42;;;;;;;4.47;4.07;;;;;;;;;;5065904;28;20486;-48
2023/06/17 08:26:08;;;;;;;5.75;4.65;;;;;;;;;;5054163;28;20222;-48
2023/06/17 08:28:34;;;;;;;6.75;4.80;;;;;;;;;;5064034;28;20255;-48
2023/06/17 08:31:00;;;;;;;6.72;5.25;;;;;;;;;;5065817;28;20514;-48
2023/06/17 08:33:26;;;;;;;5.18;4.68;;;;;;;;;;5067471;28;20612;-48
2023/06/17 08:35:52;;;;;;;6.47;5.68;;;;;;;;;;5070162;28;20261;-48
2023/06/17 08:38:18;;;;;;;7.90;5.22;;;;;;;;;;5054944;28;20267;-48
2023/06/17 08:40:45;;;;;;;8.38;4.47;;;;;;;;;;5058370;28;20191;-48
2023/06/17 08:43:12;;;;;;;4.80;4.40;;;;;;;;;;5061857;28;20241;-48
2023/06/17 08:45:39;;;;;;;4.30;3.90;;;;;;;;;;5048248;28;20610;-48
2023/06/17 08:48:06;;;;;;;6.70;4.00;;;;;;;;;;5056125;28;20625;-48
2023/06/17 08:50:32;;;;;;;5.80;5.20;;;;;;;;;;5065124;28;20237;-48
2023/06/17 08:52:59;;;;;;;7.70;5.20;;;;;;;;;;5061133;28;20174;-48
2023/06/17 08:55:25;;;;;;;6.38;5.65;;;;;;;;;;5062051;28;20182;-48
2023/06/17 08:57:51;;;;;;;6.53;4.72;;;;;;;;;;5069165;28;20191;-48
2023/06/17 09:00:17;;;;;;;5.68;4.80;;;;;;;;;;5059149;28;20179;-48
2023/06/17 09:02:45;;;;;;;6.30;5.20;;;;;;;;;;5064465;28;20184;-48
2023/06/17 09:05:11;;;;;;;5.20;4.55;;;;;;;;;;5072133;28;20179;-49
2023/06/17 09:07:37;;;;;;;5.63;4.53;;;;;;;;;;5056613;28;20175;-48
2023/06/17 09:10:05;;;;;;;6.18;4.82;;;;;;;;;;5063364;28;20203;-48
2023/06/17 09:12:40;;;;;;;6.00;4.82;;;;;;;;;;5057902;28;20245;-48
2023/06/17 09:15:15;;;;;;;7.60;4.85;;;;;;;;;;5059733;28;20181;-48
2023/06/17 09:17:42;;;;;;;6.90;5.20;;;;;;;;;;5061420;28;20194;-48
2023/06/17 09:20:10;;;;;;;7.03;4.78;;;;;;;;;;5067757;28;20186;-49
2023/06/17 09:22:36;;;;;;;6.60;4.40;;;;;;;;;;5057579;28;22389;-48
2023/06/17 09:25:02;;;;;;;5.20;4.70;;;;;;;;;;5074293;28;20273;-48
2023/06/17 09:27:28;;;;;;;4.88;4.47;;;;;;;;;;5072321;28;20209;-48
2023/06/17 09:30:06;;;;;;;4.97;4.43;;;;;;;;;;5067050;28;20176;-48
2023/06/17 09:32:39;;;;;;;5.53;4.65;;;;;;;;;;5063656;28;20178;-48
2023/06/17 09:35:06;;;;;;;6.57;4.95;;;;;;;;;;5060616;28;20438;-48
2023/06/17 09:37:32;;;;;;;5.35;4.85;;;;;;;;;;5074189;28;20489;-48
2023/06/17 09:39:59;;;;;;;6.80;4.70;;;;;;;;;;5071800;28;20194;-48
2023/06/17 09:42:32;;;;;;;5.55;4.60;;;;;;;;;;5063460;28;20553;-48
2023/06/17 09:45:03;;;;;;;4.63;4.22;;;;;;;;;;5060188;28;20187;-48
2023/06/17 09:47:38;;;;;;;4.97;4.40;;;;;;;;;;5059871;28;20210;-48
2023/06/17 09:50:06;;;;;;;7.20;4.72;;;;;;;;;;5059181;28;20182;-48
2023/06/17 09:52:35;;;;;;;5.22;4.72;;;;;;;;;;5057691;28;20183;-48
2023/06/17 09:55:02;;;;;;;8.48;4.88;;;;;;;;;;5071181;28;20192;-48
2023/06/17 09:57:32;;;;;;;5.72;4.45;;;;;;;;;;5064901;28;20206;-48
2023/06/17 10:00:09;;;;;;;5.63;4.35;;;;;;;;;;5070328;28;20195;-48
2023/06/17 10:02:36;;;;;;;5.75;4.20;;;;;;;;;;5051212;28;20177;-48
2023/06/17 10:05:03;;;;;;;5.72;4.38;;;;;;;;;;5071171;28;20190;-48
2023/06/17 10:07:29;;;;;;;4.75;4.32;;;;;;;;;;5056133;28;20289;-48
2023/06/17 10:09:55;;;;;;;6.60;4.35;;;;;;;;;;5064451;28;20206;-48
2023/06/17 10:12:22;;;;;;;4.60;4.20;;;;;;;;;;5063470;28;20249;-48
2023/06/17 10:14:48;;;;;;;4.47;4.07;;;;;;;;;;5061176;28;20202;-48
2023/06/17 10:17:16;;;;;;;5.35;3.97;;;;;;;;;;5054948;28;20277;-48
2023/06/17 10:19:43;;;;;;;4.40;4.00;;;;;;;;;;5059938;28;20179;-48
2023/06/17 10:22:11;;;;;;;5.07;4.13;;;;;;;;;;5059055;28;20213;-48
2023/06/17 10:24:37;;;;;;;6.05;4.00;;;;;;;;;;5071618;28;20187;-48
2023/06/17 10:27:04;;;;;;;8.02;4.72;;;;;;;;;;5063731;28;20230;-48
2023/06/17 10:29:30;;;;;;;5.10;4.22;;;;;;;;;;5053335;28;20171;-48
2023/06/17 10:31:56;;;;;;;4.47;4.07;;;;;;;;;;5055905;28;20428;-49
2023/06/17 10:34:22;;;;;;;7.05;4.13;;;;;;;;;;5070103;28;20186;-48
2023/06/17 10:36:49;;;;;;;5.90;4.60;;;;;;;;;;5056506;28;20277;-48
2023/06/17 10:39:15;;;;;;;5.57;4.40;;;;;;;;;;5061939;28;20227;-48
2023/06/17 10:41:41;;;;;;;4.00;3.67;;;;;;;;;;5065960;28;20174;-48
2023/06/17 10:44:26;;;;;;;4.35;3.92;;;;;;;;;;5066596;28;20511;-47
2023/06/17 10:46:52;;;;;;;4.20;3.80;;;;;;;;;;5056238;28;20484;-47
2023/06/17 10:49:18;;;;;;;5.25;4.03;;;;;;;;;;5064348;28;20324;-47
2023/06/17 10:51:47;;;;;;;6.47;4.40;;;;;;;;;;5066945;28;20180;-47
2023/06/17 10:54:13;;;;;;;6.55;4.15;;;;;;;;;;5053564;28;20184;-47
2023/06/17 10:56:52;;;;;;;6.35;4.53;;;;;;;;;;5060874;28;20179;-47
2023/06/17 10:59:25;;;;;;;5.25;4.40;;;;;;;;;;5055044;28;20593;-47
2023/06/17 11:01:51;;;;;;;5.35;4.20;;;;;;;;;;5064551;28;20195;-46
2023/06/17 11:04:21;;;;;;;5.20;4.18;;;;;;;;;;5055325;28;20519;-46
2023/06/17 11:06:47;;;;;;;4.70;4.30;;;;;;;;;;5059070;28;20452;-47
2023/06/17 11:09:13;;;;;;;7.35;4.40;;;;;;;;;;5056743;28;20183;-47
2023/06/17 11:11:39;;;;;;;6.05;4.38;;;;;;;;;;5055607;28;20628;-47
2023/06/17 11:14:05;;;;;;;5.63;4.20;;;;;;;;;;5056053;28;20187;-48
2023/06/17 11:16:32;;;;;;;5.28;4.10;;;;;;;;;;5059926;28;20235;-48
2023/06/17 11:18:59;;;;;;;8.45;4.15;;;;;;;;;;5070239;28;20191;-47
2023/06/17 11:21:25;;;;;;;4.38;3.88;;;;;;;;;;5059012;28;20179;-47
2023/06/17 11:23:52;;;;;;;8.60;4.45;;;;;;;;;;5062737;28;20585;-47
2023/06/17 11:26:18;;;;;;;4.70;4.10;;;;;;;;;;5058254;28;20210;-47
2023/06/17 11:28:44;;;;;;;6.05;4.60;;;;;;;;;;5058910;28;20185;-47
2023/06/17 11:31:10;;;;;;;6.32;4.00;;;;;;;;;;5065442;28;20186;-47
2023/06/17 11:33:37;;;;;;;4.68;3.90;;;;;;;;;;5061878;28;20594;-47
2023/06/17 11:36:07;;;;;;;4.65;4.25;;;;;;;;;;5064321;28;20608;-46
2023/06/17 11:38:33;;;;;;;6.43;3.83;;;;;;;;;;5058853;28;20179;-47
2023/06/17 11:40:59;;;;;;;8.93;4.45;;;;;;;;;;5051120;28;20213;-47
2023/06/17 11:43:26;;;;;;;7.38;4.53;;;;;;;;;;5063989;28;20364;-47
2023/06/17 11:45:58;;;;;;;6.18;4.15;;;;;;;;;;5055246;28;20290;-47
2023/06/17 11:48:33;;;;;;;6.18;4.55;;;;;;;;;;5058825;28;20228;-47
2023/06/17 11:50:59;;;;;;;6.93;4.70;;;;;;;;;;5062046;28;20179;-47
2023/06/17 11:53:36;;;;;;;6.07;4.28;;;;;;;;;;5053402;28;20224;-47
2023/06/17 11:56:05;;;;;;;6.75;4.50;;;;;;;;;;5054321;28;20245;-47
2023/06/17 11:58:32;;;;;;;6.20;4.50;;;;;;;;;;5047480;28;20175;-47
2023/06/17 12:01:01;;;;;;;4.55;3.90;;;;;;;;;;5053456;28;20194;-47
2023/06/17 12:03:28;;;;;;;8.13;4.15;;;;;;;;;;5052965;28;20592;-47
2023/06/17 12:05:54;;;;;;;9.45;4.40;;;;;;;;;;5052404;28;20230;-47
2023/06/17 12:08:20;;;;;;;6.85;3.92;;;;;;;;;;5053046;28;20501;-47
2023/06/17 12:10:46;;;;;;;6.38;4.15;;;;;;;;;;5053663;28;20320;-47
2023/06/17 12:13:12;;;;;;;6.28;4.25;;;;;;;;;;5060098;28;20845;-47
2023/06/17 12:15:38;;;;;;;7.57;4.18;;;;;;;;;;5053052;28;20191;-47
2023/06/17 12:18:11;;;;;;;6.10;4.13;;;;;;;;;;5053299;28;20194;-47
2023/06/17 12:20:37;;;;;;;10.13;4.55;;;;;;;;;;5053517;28;20183;-47
2023/06/17 12:23:03;;;;;;;5.88;4.05;;;;;;;;;;5050199;28;20270;-47
2023/06/17 12:25:35;;;;;;;5.35;4.40;;;;;;;;;;5063364;28;20215;-47
2023/06/17 12:28:02;;;;;;;8.10;4.40;;;;;;;;;;5063675;28;20197;-47
2023/06/17 12:30:27;;;;;;;5.43;3.90;;;;;;;;;;5060745;28;20200;-47
2023/06/17 12:32:54;;;;;;;10.88;4.88;;;;;;;;;;5061983;28;20258;-47
2023/06/17 12:35:22;;;;;;;9.73;4.28;;;;;;;;;;5059432;28;20261;-47
2023/06/17 12:37:50;;;;;;;9.52;4.65;;;;;;;;;;5050855;28;20190;-47
2023/06/17 12:40:17;;;;;;;8.45;4.60;;;;;;;;;;5060925;28;20188;-47
2023/06/17 12:42:43;;;;;;;9.88;4.25;;;;;;;;;;5066874;28;20167;-47
2023/06/17 12:45:09;;;;;;;6.32;4.57;;;;;;;;;;5053852;28;20182;-47
2023/06/17 12:47:36;;;;;;;6.00;4.40;;;;;;;;;;5055171;28;20198;-48
2023/06/17 12:50:02;;;;;;;7.00;4.20;;;;;;;;;;5053307;28;20172;-48
2023/06/17 12:52:28;;;;;;;4.47;4.03;;;;;;;;;;5057829;28;20221;-48
2023/06/17 12:55:01;;;;;;;6.40;4.35;;;;;;;;;;5064138;28;20555;-47
2023/06/17 12:57:27;;;;;;;5.75;4.00;;;;;;;;;;5056501;28;20178;-48
2023/06/17 12:59:53;;;;;;;8.10;3.88;;;;;;;;;;5069265;28;20172;-47
2023/06/17 13:02:19;;;;;;;4.65;4.13;;;;;;;;;;5057524;28;20178;-47
2023/06/17 13:04:45;;;;;;;7.18;4.38;;;;;;;;;;5055364;28;20210;-47
2023/06/17 13:07:11;;;;;;;5.18;4.30;;;;;;;;;;5070187;28;20245;-47
2023/06/17 13:09:37;;;;;;;5.47;4.45;;;;;;;;;;5063367;28;20199;-48
2023/06/17 13:12:04;;;;;;;7.03;4.07;;;;;;;;;;5057717;28;20195;-48
2023/06/17 13:14:30;;;;;;;4.72;4.30;;;;;;;;;;5063563;28;20218;-48
2023/06/17 13:16:56;;;;;;;4.78;4.28;;;;;;;;;;5052194;28;20175;-48
2023/06/17 13:19:22;;;;;;;4.65;3.88;;;;;;;;;;5065192;28;20265;-48
2023/06/17 13:21:48;;;;;;;6.82;4.20;;;;;;;;;;5071501;28;20277;-48
2023/06/17 13:24:14;;;;;;;5.57;4.43;;;;;;;;;;5065350;28;20198;-48
2023/06/17 13:26:40;;;;;;;6.20;3.60;;;;;;;;;;5065454;28;20495;-48
2023/06/17 13:29:06;;;;;;;5.78;4.18;;;;;;;;;;5056102;28;20214;-48
2023/06/17 13:31:32;;;;;;;4.65;4.10;;;;;;;;;;5061545;28;20224;-48
2023/06/17 13:33:58;;;;;;;5.18;4.25;;;;;;;;;;5057900;28;20191;-48
2023/06/17 13:36:25;;;;;;;11.00;4.40;;;;;;;;;;5066185;28;20568;-48
2023/06/17 13:38:51;;;;;;;7.07;4.03;;;;;;;;;;5068205;28;20178;-48
2023/06/17 13:41:17;;;;;;;5.60;4.28;;;;;;;;;;5055931;28;20581;-48
2023/06/17 13:43:43;;;;;;;6.15;4.50;;;;;;;;;;5069268;28;20190;-48
2023/06/17 13:46:09;;;;;;;5.57;4.40;;;;;;;;;;5060347;28;20203;-48
2023/06/17 13:48:35;;;;;;;4.20;3.80;;;;;;;;;;5057351;28;20191;-48
2023/06/17 13:51:02;;;;;;;4.70;4.30;;;;;;;;;;5052276;28;20541;-48
2023/06/17 13:53:29;;;;;;;6.00;4.65;;;;;;;;;;5062871;28;20550;-48
2023/06/17 13:55:55;;;;;;;5.43;4.50;;;;;;;;;;5060747;28;20574;-48
2023/06/17 13:58:21;;;;;;;5.90;4.03;;;;;;;;;;5053791;28;20183;-48
2023/06/17 14:00:46;;;;;;;10.10;4.47;;;;;;;;;;5054257;28;20851;-48
2023/06/17 14:03:12;;;;;;;4.68;4.22;;;;;;;;;;5055507;28;20211;-48
2023/06/17 14:05:38;;;;;;;4.30;3.90;;;;;;;;;;5048706;28;20183;-48
2023/06/17 14:08:05;;;;;;;6.80;3.97;;;;;;;;;;5053906;28;20237;-48
2023/06/17 14:10:31;;;;;;;6.60;4.30;;;;;;;;;;5057952;28;20201;-48
2023/06/17 14:12:57;;;;;;;8.30;4.10;;;;;;;;;;5058886;28;20171;-48
2023/06/17 14:15:23;;;;;;;7.88;4.68;;;;;;;;;;5062658;28;20197;-48
2023/06/17 14:17:49;;;;;;;6.20;4.40;;;;;;;;;;5054281;28;20186;-48
2023/06/17 14:20:15;;;;;;;7.95;5.05;;;;;;;;;;5051122;28;20187;-48
2023/06/17 14:22:41;;;;;;;9.00;5.35;;;;;;;;;;5048313;28;20455;-48
2023/06/17 14:25:10;;;;;;;7.70;4.07;;;;;;;;;;5054322;28;20194;-48
2023/06/17 14:27:42;;;;;;;6.20;4.35;;;;;;;;;;5056491;28;20237;-48
2023/06/17 14:30:13;;;;;;;7.45;4.32;;;;;;;;;;5052299;28;20237;-48
2023/06/17 14:32:40;;;;;;;7.88;4.47;;;;;;;;;;5051440;28;20233;-48
2023/06/17 14:35:06;;;;;;;6.07;3.90;;;;;;;;;;5059464;28;20562;-48
2023/06/17 14:37:32;;;;;;;6.18;4.15;;;;;;;;;;5049948;28;20624;-48
2023/06/17 14:39:59;;;;;;;7.85;4.32;;;;;;;;;;5051268;28;20179;-48